Airfield :







YOU CAN JOIN US ON...

 
LOGIN :

Register | Disclaimer

   EN    FR    IT 

 









Legend :    VFR   Marginal VFR   IFR   Intensive IFR   Very Intensive IFR
Visi :
Ceiling :
>= 8 km
>= 3000ft
5 to 8 km
1000 to 3000 ft
1500m to 5 km
500 to 1000 ft
800 to 1500m
200 to 500 ft
< 800m
< 200 ft
Symbols :   Thunderstorms  Fog  Heavy snow  Heavy precipitations  Wind > 20 kt






- Airport Elevation : 121 ft
- IATA code : YBX


CYBX - Lourdes De Blanc Sablon

CURRENT METAR :
  • 172000Z 22020G27KT 15SM BKN250 14/10 A3012 RMK CI6 SLP204

EXPIRED METARs :
  • 171900Z 23021G30KT 15SM FEW006 BKN250 14/10 A3014 RMK SF1CI5 SF TR SLP208
  • 171800Z 24020KT 15SM FEW006 FEW250 14/11 A3017 RMK ST1CI1 ST TR CI TR SLP220
  • 171700Z 24018KT 15SM FEW005 14/11 A3017 RMK ST1 ST TR PRESFR SLP221

TAF TAF CYBX
Valid from the 17 at 20:00 until the 18 at 08:00 UTC


171938Z 1720/1808 23020G30KT P6SM FEW006
PROB40 1723/1804 2SM BR BKN006
FM180400 23015G25KT 2SM BR BKN006
PROB30 1804/1808 1/2SM FG VV002 RMK NXT FCST BY 180200Z
CZUL FIR / North America



MET'MAP, your aeronautical weather chart ! - Copyright ORBIFLY December 2007 - Disclaimer

ORBIFLY MET'MAP TEAM :

Programming & Development : Alexandra Zaïnal
Concept & original design : Baudouin d'Aumeries
Assistance for programming : Marc-Olivier Méhu
Technical & hardware support : Manuel Goepfert

Contact : metmap@orbifly.com




SOURCES & CREDITS :

   NOAA